Steptoe Valley North, Nevada Weather observations

Data are for 10 minute period ending at time listed.
 Day   Time   Solar   Ave.   Ave.  Ave.  Vector  Max.   Baro.   Total    
  of    of     Rad.   Air    Rel.  Wind   Wind   Wind  Press.  Precip.   
Year   Day            Temp.  Hum.  Speed  Dir.   Gust                    
2017   (PST)  Kw/m2    F      %     mph   deg.    mph    mb.     in.     
-------------------------------------------------------------------------
  20    9:00   0.24   16.1    91    4.6   122     7.2   804.2    0.00 
  20    9:10   0.25   17.8    95    5.8   115     7.2   803.9    0.00 
  20    9:20   0.33   20.1    96    4.6   112     5.6   804.1    0.00 
  20    9:30   0.25   22.4    97    4.2   140     5.4   804.0    0.00 
  20    9:40   0.27   25.2    98    3.2   165     4.6   803.8    0.00 
  20    9:50   0.33   25.4    96    3.5   139     4.9   803.8    0.00 
  20   10:00   0.31   26.4    93    3.0   135     4.6   803.7    0.00 
  20   10:10   0.40   26.9    86    3.0   134     4.7   803.6    0.00 
  20   10:20   0.42   27.0    81    3.1   101     4.5   803.4    0.01 
  20   10:30   0.49   28.2    78    1.4    86     2.6   803.4    0.01 
  20   10:40   0.34   31.0    75    0.5    55     2.2   803.1    0.00 
  20   10:50   0.27   29.8    75    1.1    16     2.9   802.9    0.00 
  20   11:00   0.26   29.3    76    1.2   356     2.8   802.7    0.00 
  20   11:10   0.24   29.0    76    2.1   136     4.2   802.6    0.00 
  20   11:20   0.22   30.9    73    1.4   160     3.6   802.4    0.00 
  20   11:30   0.20   31.6    71    0.6   171     1.9   802.1    0.00 
  20   11:40   0.24   30.4    72    0.7   121     1.5   801.8    0.00 
  20   11:50   0.27   31.0    73    0.9     9     3.1   801.5    0.00 
  20   12:00   0.29   30.0    76    3.3    26     4.7   801.3    0.00 
  20   12:10   0.29   29.6    78    3.3   350     5.3   801.1    0.00 
  20   12:20   0.25   29.8    79    3.5   329     4.8   800.8    0.00 
  20   12:30   0.25   29.7    79    3.0   341     5.6   800.6    0.00 
  20   12:40   0.30   30.3    78    3.0   345     5.0   800.3    0.00 
  20   12:50   0.33   30.5    79    2.8   360     6.1   800.1    0.00 
  20   13:00   0.29   30.6    81    2.3   349     3.7   799.9    0.00 
  20   13:10   0.32   30.8    81    2.6    24     3.8   799.7    0.00 
  20   13:20   0.22   30.1    83    2.1    27     3.7   799.4    0.00 
  20   13:30   0.22   30.4    84    1.2     5     2.2   799.3    0.00 
  20   13:40   0.23   29.8    84    3.2    28     4.2   799.0    0.00 
  20   13:50   0.18   29.1    87    4.0    42     4.9   799.0    0.00 
  20   14:00   0.17   29.4    88    1.8    49     3.3   799.0    0.00 
  20   14:10   0.18   30.6    87    0.6    49     1.4   799.0    0.00 
  20   14:20   0.16   30.1    86    2.4    40     3.1   799.0    0.00 
  20   14:30   0.14   30.0    88    1.9    38     2.6   798.9    0.01 
  20   14:40   0.12   30.2    88    2.2    38     3.1   798.8    0.00 
  20   14:50   0.11   29.8    88    3.8    48     4.8   798.7    0.00 
  20   15:00   0.10   29.3    90    4.9    66     6.0   798.4    0.00 
  20   15:10   0.10   29.5    93    5.4    61     7.2   798.2    0.00 
  20   15:20   0.10   29.5    93    6.9    51     9.1   798.1    0.00 
  20   15:30   0.12   29.6    94    6.7    52     9.8   798.1    0.00 
  20   15:40   0.06   29.4    94    6.8    41     8.7   797.9    0.00 
  20   15:50   0.05   29.2    94    6.2    42     8.8   797.7    0.00 
  20   16:00   0.06   29.4    94    4.0    64     6.2   797.7    0.00 
  20   16:10   0.05   29.6    94    1.9    81     4.2   797.7    0.00 
  20   16:20   0.03   29.8    92    3.1    73     4.7   797.7    0.00 
  20   16:30   0.02   29.4    90    2.6   128     4.2   797.7    0.00 
  20   16:40   0.01   29.4    89    3.7    99     4.9   797.6    0.00 
  20   16:50   0.01   29.1    89    4.0   104     6.0   797.5    0.00 
  20   17:00   0.00   28.9    92    4.9    85     7.4   797.4    0.00 
  20   17:10   0.00   28.9    94    4.3    83     7.6   797.5    0.00 
  20   17:20   0.00   29.3    93    3.1   149     7.4   797.5    0.00 
  20   17:30   0.00   29.8    89    8.2   202    12.8   797.5    0.00 
  20   17:40   0.00   30.0    89    9.7   211    11.7   797.5    0.00 
  20   17:50   0.00   29.6    89    8.7   214    14.2   797.5    0.00 
  20   18:00   0.00   29.7    89   11.0   214    14.7   797.4    0.00 
  20   18:10   0.00   29.5    88   11.3   221    13.9   797.3    0.00 
  20   18:20   0.00   29.6    89   10.6   225    13.3   797.3    0.00 
  20   18:30   0.00   30.0    88   10.9   222    13.6   797.3    0.00 
  20   18:40   0.00   30.0    88   11.8   224    17.6   797.3    0.00 
  20   18:50   0.00   30.4    87   12.1   218    16.8   797.4    0.00 
  20   19:00   0.00   30.5    88   12.1   213    17.8   797.3    0.00 
  20   19:10   0.00   30.4    89   10.7   218    14.3   797.3    0.00 
  20   19:20   0.00   30.3    90   12.2   224    15.1   797.3    0.00 
  20   19:30   0.00   30.4    91   13.7   213    17.2   797.2    0.00 
  20   19:40   0.00   30.3    92   14.6   203    18.6   797.1    0.00 
  20   19:50   0.00   30.0    93   12.3   192    17.5   797.0    0.00 
  20   20:00   0.00   29.0    93    8.9   182    12.9   796.9    0.00 
  20   20:10   0.00   26.9    92    5.3   143     6.8   796.9    0.00 
  20   20:20   0.00   26.6    95    5.1   141     8.0   796.9    0.00 
  20   20:30   0.00   28.3    96    7.0   104    11.5   796.9    0.00 
  20   20:40   0.00   29.7    88    4.3   104    14.0   797.0    0.00 
  20   20:50   0.00   29.9    86    4.5   128    10.4   797.0    0.00 
  20   21:00   0.00   30.1    83    5.5   182    15.6   797.1    0.00 
  20   21:10   0.00   29.5    82   10.1   183    15.7   796.9    0.00 
  20   21:20   0.00   28.8    83    8.9   186    14.0   797.0    0.00 
  20   21:30   0.00   27.8    84    5.0   180     8.3   797.2    0.00 
  20   21:40   0.00   27.2    86    1.9   140     3.7   797.2    0.00 
  20   21:50   0.00   27.3    88    2.0    64     2.9   797.3    0.00 
  20   22:00   0.00   27.4    87    1.5    36     2.6   797.2    0.00 
  20   22:10   0.00   27.4    87    2.1    15     4.5   797.2    0.00 
  20   22:20   0.00   28.2    86    3.3   344     6.9   797.2    0.00 
  20   22:30   0.00   29.2    84    0.3   188     3.1   797.3    0.00 
  20   22:40   0.00   29.0    84    2.3   250     4.7   797.3    0.00 
  20   22:50   0.00   29.1    86    8.7   215    13.2   797.3    0.00 
  20   23:00   0.00   29.4    89   13.0   210    16.2   797.1    0.00 
  20   23:10   0.00   28.3    89   10.3   208    13.2   797.1    0.00 
  20   23:20   0.00   27.2    89   10.8   202    13.4   796.9    0.00 
  20   23:30   0.00   26.7    89   11.4   204    14.0   796.8    0.00 
  20   23:40   0.00   27.1    89   13.6   200    17.6   796.7    0.00 
  20   23:50   0.00   26.7    87   12.3   198    15.8   796.7    0.00 
  21    0:00   0.00   25.9    87   10.3   194    13.4   796.8    0.00 
  21    0:10   0.00   25.1    88    8.9   194    11.1   796.8    0.00 
  21    0:20   0.00   23.3    87    8.0   188     9.5   796.9    0.00 
  21    0:30   0.00   22.6    88    8.9   194    10.5   796.8    0.00 
  21    0:40   0.00   23.6    89    9.4   201    11.1   796.8    0.00 
  21    0:50   0.00   22.3    87    4.5   270     7.3   796.9    0.00 
  21    1:00   0.00   22.7    92    5.4   295     7.8   797.0    0.00 
  21    1:10   0.00   22.2    92    5.0   285     8.9   797.3    0.00 
  21    1:20   0.00   23.2    90    4.0   313     7.7   797.5    0.00 
  21    1:30   0.00   23.7    90    4.1   307     6.9   797.7    0.00 
  21    1:40   0.00   22.7    86    2.4   267     4.8   797.9    0.00 
  21    1:50   0.00   21.0    89    1.6   196     3.9   798.0    0.00 
  21    2:00   0.00   20.8    90    3.9   273     6.3   798.1    0.00 
  21    2:10   0.00   21.6    92    6.4   220     8.8   798.1    0.00 
  21    2:20   0.00   21.0    88    3.4   329     6.1   798.3    0.00 
  21    2:30   0.00   23.1    92    2.0   270     5.9   798.3    0.00 
  21    2:40   0.00   24.3    85    2.7   203     5.9   798.4    0.00 
  21    2:50   0.00   25.7    81    5.6   246    11.3   798.6    0.00 
  21    3:00   0.00   25.2    81    5.9   241     9.7   798.6    0.00 
  21    3:10   0.00   25.7    79    5.5   229     9.7   798.8    0.00 
  21    3:20   0.00   24.9    79    4.9   229     6.9   798.8    0.00 
  21    3:30   0.00   23.7    82    7.8   224    11.0   798.9    0.00 
  21    3:40   0.00   23.1    81    6.6   222     8.6   799.0    0.00 
  21    3:50   0.00   21.7    84    8.4   205     9.7   799.0    0.00 
  21    4:00   0.00   21.4    84    5.5   184     7.5   799.1    0.00 
  21    4:10   0.00   20.9    84    5.2   179     7.1   799.2    0.00 
  21    4:20   0.00   21.9    86    6.0   196     8.0   799.4    0.00 
  21    4:30   0.00   23.6    82    4.0   224     6.9   799.5    0.00 
  21    4:40   0.00   24.6    81    6.0   195     7.6   799.6    0.00 
  21    4:50   0.00   24.6    79    4.0   272    10.0   799.9    0.00 
  21    5:00   0.00   23.8    81    1.8   279     3.9   800.1    0.00 
  21    5:10   0.00   23.7    83    1.0   247     4.5   800.2    0.00 
  21    5:20   0.00   25.0    78    4.5   221     6.2   800.3    0.00 
  21    5:30   0.00   23.9    77    2.0   323     3.9   800.6    0.00 
  21    5:40   0.00   24.6    78    3.3   236     6.9   800.7    0.00 
  21    5:50   0.00   25.1    78    6.8   182    10.2   800.8    0.00 
  21    6:00   0.00   24.1    80    6.6   180     9.3   801.0    0.00 
  21    6:10   0.00   22.9    79    5.5   198    11.2   801.3    0.00 
  21    6:20   0.00   22.1    83    1.3   253     5.3   801.6    0.00 
  21    6:30   0.00   22.7    82    4.3   231     6.9   801.8    0.00 
  21    6:40   0.00   22.2    82    5.9   189     8.3   802.0    0.00 
  21    6:50   0.00   23.5    81    7.7   162     9.9   802.2    0.00 
  21    7:00   0.00   23.6    78    8.2   161     9.5   802.3    0.00 
  21    7:10   0.01   23.2    79    6.5   150     9.0   802.5    0.00 
  21    7:20   0.02   22.5    79    7.6   157     8.6   802.6    0.00 
  21    7:30   0.03   22.5    78    7.0   174     8.1   802.8    0.00 
  21    7:40   0.04   24.1    76    5.2   168     6.6   803.0    0.00 
  21    7:50   0.05   24.7    73    3.4   156     4.7   803.3    0.00 
  21    8:00   0.06   23.2    75    2.8   158     5.0   803.5    0.00 
  21    8:10   0.07   24.1    75    1.8   207     5.4   803.9    0.00 
  21    8:20   0.09   25.1    73    2.7   195     6.0   804.1    0.00 
  21    8:30   0.11   26.6    70    4.4   260    10.4   804.2    0.00 
  21    8:40   0.13   28.4    66    6.0   236    11.8   804.3    0.00 
  21    8:50   0.14   28.7    64    7.9   228    18.4   804.4    0.00 

Return to Steptoe Valley North graphs page.


Western Regional Climate Center,wrcc@dri.edu